Du Bois, Illinois
Current Conditions -  °F | °C
As of 6:35 AM on Monday 26 Jan 2015 (Local Time) from KMVN Reporting Station
Overcast Overcast  
Wind Chill: 27°   Ceiling: 1800
Heat Index: 27°   Visibility: 10mi
Dew Point: 19°   Wind: 3mph
Humidity: 74%   Direction: 350°N
Pressure: 30.01"   Gusts: NA
Location:  38.22°N, 89.21°W
Report Text: KMVN 261235Z AUTO 35003KT 10SM OVC018 M03/M07 A3001 RMK AO1
Loading
Personal Weather Stations






























Interactive Weather Map New forecast layout! Learn more

10-Day Weather Forecast

Advertisements
Track Severe Weather on mobile